sensor_id;sensor_type;location;lat;lon;timestamp;P1;durP1;ratioP1;P2;durP2;ratioP2
13785;SDS011;47474;48.824;9.384;2024-01-30T00:00:54;9.87;;;6.97;;
13785;SDS011;47474;48.824;9.384;2024-01-30T00:03:24;11.90;;;7.27;;
13785;SDS011;47474;48.824;9.384;2024-01-30T00:05:52;9.77;;;6.27;;
13785;SDS011;47474;48.824;9.384;2024-01-30T00:08:20;7.83;;;6.47;;
13785;SDS011;47474;48.824;9.384;2024-01-30T00:10:50;7.73;;;6.17;;
13785;SDS011;47474;48.824;9.384;2024-01-30T00:13:16;12.50;;;7.37;;
13785;SDS011;47474;48.824;9.384;2024-01-30T00:15:45;11.97;;;7.33;;
13785;SDS011;47474;48.824;9.384;2024-01-30T00:18:12;9.73;;;6.87;;
13785;SDS011;47474;48.824;9.384;2024-01-30T00:20:42;10.87;;;7.27;;
13785;SDS011;47474;48.824;9.384;2024-01-30T00:23:16;9.17;;;7.07;;
13785;SDS011;47474;48.824;9.384;2024-01-30T00:25:47;11.67;;;7.90;;
13785;SDS011;47474;48.824;9.384;2024-01-30T00:28:14;10.70;;;7.73;;
13785;SDS011;47474;48.824;9.384;2024-01-30T00:30:44;10.83;;;6.83;;
13785;SDS011;47474;48.824;9.384;2024-01-30T00:33:19;9.03;;;6.43;;
13785;SDS011;47474;48.824;9.384;2024-01-30T00:35:46;6.97;;;6.03;;
13785;SDS011;47474;48.824;9.384;2024-01-30T00:38:17;8.43;;;6.40;;
13785;SDS011;47474;48.824;9.384;2024-01-30T00:40:48;7.63;;;6.07;;
13785;SDS011;47474;48.824;9.384;2024-01-30T00:43:18;8.30;;;6.23;;
13785;SDS011;47474;48.824;9.384;2024-01-30T00:45:46;9.80;;;6.47;;
13785;SDS011;47474;48.824;9.384;2024-01-30T00:48:13;9.17;;;6.27;;
13785;SDS011;47474;48.824;9.384;2024-01-30T00:50:42;7.80;;;5.80;;
13785;SDS011;47474;48.824;9.384;2024-01-30T00:53:09;7.73;;;5.87;;
13785;SDS011;47474;48.824;9.384;2024-01-30T00:55:40;8.43;;;5.83;;
13785;SDS011;47474;48.824;9.384;2024-01-30T00:58:07;6.37;;;4.90;;
13785;SDS011;47474;48.824;9.384;2024-01-30T01:00:34;7.37;;;5.27;;
13785;SDS011;47474;48.824;9.384;2024-01-30T01:03:06;6.17;;;5.30;;
13785;SDS011;47474;48.824;9.384;2024-01-30T01:05:39;6.90;;;6.07;;
13785;SDS011;47474;48.824;9.384;2024-01-30T01:08:07;8.80;;;6.20;;
13785;SDS011;47474;48.824;9.384;2024-01-30T01:10:35;9.07;;;6.23;;
13785;SDS011;47474;48.824;9.384;2024-01-30T01:13:04;7.90;;;5.50;;
13785;SDS011;47474;48.824;9.384;2024-01-30T01:15:32;9.83;;;6.90;;
13785;SDS011;47474;48.824;9.384;2024-01-30T01:18:01;8.57;;;6.27;;
13785;SDS011;47474;48.824;9.384;2024-01-30T01:20:32;7.77;;;6.27;;
13785;SDS011;47474;48.824;9.384;2024-01-30T01:23:01;10.83;;;6.50;;
13785;SDS011;47474;48.824;9.384;2024-01-30T01:25:31;9.00;;;6.80;;
13785;SDS011;47474;48.824;9.384;2024-01-30T01:27:58;10.63;;;6.20;;
13785;SDS011;47474;48.824;9.384;2024-01-30T01:30:30;10.63;;;6.60;;
13785;SDS011;47474;48.824;9.384;2024-01-30T01:32:57;9.77;;;5.53;;
13785;SDS011;47474;48.824;9.384;2024-01-30T01:35:27;8.50;;;6.23;;
13785;SDS011;47474;48.824;9.384;2024-01-30T01:37:57;10.23;;;5.90;;
13785;SDS011;47474;48.824;9.384;2024-01-30T01:40:25;8.20;;;6.43;;
13785;SDS011;47474;48.824;9.384;2024-01-30T01:42:52;7.60;;;5.53;;
13785;SDS011;47474;48.824;9.384;2024-01-30T01:45:19;7.63;;;5.77;;
13785;SDS011;47474;48.824;9.384;2024-01-30T01:47:48;7.40;;;5.13;;
13785;SDS011;47474;48.824;9.384;2024-01-30T01:50:17;6.47;;;5.40;;
13785;SDS011;47474;48.824;9.384;2024-01-30T01:52:44;9.70;;;5.67;;
13785;SDS011;47474;48.824;9.384;2024-01-30T01:55:12;8.63;;;5.63;;
13785;SDS011;47474;48.824;9.384;2024-01-30T01:57:39;7.37;;;5.37;;
13785;SDS011;47474;48.824;9.384;2024-01-30T02:00:07;8.07;;;6.07;;
13785;SDS011;47474;48.824;9.384;2024-01-30T02:02:35;5.97;;;5.33;;
13785;SDS011;47474;48.824;9.384;2024-01-30T02:05:04;6.20;;;5.23;;
13785;SDS011;47474;48.824;9.384;2024-01-30T02:07:31;9.43;;;5.60;;
13785;SDS011;47474;48.824;9.384;2024-01-30T02:09:58;10.57;;;6.43;;
13785;SDS011;47474;48.824;9.384;2024-01-30T02:12:25;6.30;;;5.00;;
13785;SDS011;47474;48.824;9.384;2024-01-30T02:14:51;6.50;;;4.97;;
13785;SDS011;47474;48.824;9.384;2024-01-30T02:17:18;5.17;;;4.67;;
13785;SDS011;47474;48.824;9.384;2024-01-30T02:19:45;5.97;;;4.90;;
13785;SDS011;47474;48.824;9.384;2024-01-30T02:22:12;6.83;;;6.03;;
13785;SDS011;47474;48.824;9.384;2024-01-30T02:24:39;7.93;;;4.97;;
13785;SDS011;47474;48.824;9.384;2024-01-30T02:27:06;5.80;;;5.20;;
13785;SDS011;47474;48.824;9.384;2024-01-30T02:29:32;8.03;;;5.10;;
13785;SDS011;47474;48.824;9.384;2024-01-30T02:31:59;6.87;;;5.43;;
13785;SDS011;47474;48.824;9.384;2024-01-30T02:34:25;6.63;;;5.30;;
13785;SDS011;47474;48.824;9.384;2024-01-30T02:36:51;6.27;;;5.27;;
13785;SDS011;47474;48.824;9.384;2024-01-30T02:39:19;6.37;;;5.67;;
13785;SDS011;47474;48.824;9.384;2024-01-30T02:41:46;7.07;;;5.50;;
13785;SDS011;47474;48.824;9.384;2024-01-30T02:44:12;5.53;;;5.00;;
13785;SDS011;47474;48.824;9.384;2024-01-30T02:46:39;7.87;;;5.00;;
13785;SDS011;47474;48.824;9.384;2024-01-30T02:49:05;6.23;;;4.90;;
13785;SDS011;47474;48.824;9.384;2024-01-30T02:51:32;5.70;;;5.03;;
13785;SDS011;47474;48.824;9.384;2024-01-30T02:53:58;7.23;;;5.60;;
13785;SDS011;47474;48.824;9.384;2024-01-30T02:56:27;5.60;;;5.00;;
13785;SDS011;47474;48.824;9.384;2024-01-30T02:58:53;7.40;;;5.03;;
13785;SDS011;47474;48.824;9.384;2024-01-30T03:01:20;6.00;;;5.10;;
13785;SDS011;47474;48.824;9.384;2024-01-30T03:03:46;6.70;;;5.43;;
13785;SDS011;47474;48.824;9.384;2024-01-30T03:06:14;5.10;;;4.60;;
13785;SDS011;47474;48.824;9.384;2024-01-30T03:08:45;6.73;;;5.37;;
13785;SDS011;47474;48.824;9.384;2024-01-30T03:11:11;6.67;;;5.37;;
13785;SDS011;47474;48.824;9.384;2024-01-30T03:13:40;7.43;;;4.90;;
13785;SDS011;47474;48.824;9.384;2024-01-30T03:16:08;5.47;;;4.83;;
13785;SDS011;47474;48.824;9.384;2024-01-30T03:18:34;7.23;;;5.37;;
13785;SDS011;47474;48.824;9.384;2024-01-30T03:21:01;6.47;;;5.63;;
13785;SDS011;47474;48.824;9.384;2024-01-30T03:23:27;6.23;;;5.13;;
13785;SDS011;47474;48.824;9.384;2024-01-30T03:25:54;6.07;;;4.77;;
13785;SDS011;47474;48.824;9.384;2024-01-30T03:28:21;6.07;;;4.50;;
13785;SDS011;47474;48.824;9.384;2024-01-30T03:30:48;7.73;;;5.03;;
13785;SDS011;47474;48.824;9.384;2024-01-30T03:33:15;7.67;;;5.60;;
13785;SDS011;47474;48.824;9.384;2024-01-30T03:35:41;5.87;;;5.07;;
13785;SDS011;47474;48.824;9.384;2024-01-30T03:38:08;8.37;;;5.20;;
13785;SDS011;47474;48.824;9.384;2024-01-30T03:40:35;8.93;;;5.13;;
13785;SDS011;47474;48.824;9.384;2024-01-30T03:43:01;7.37;;;5.17;;
13785;SDS011;47474;48.824;9.384;2024-01-30T03:45:28;6.87;;;5.13;;
13785;SDS011;47474;48.824;9.384;2024-01-30T03:47:56;7.27;;;5.50;;
13785;SDS011;47474;48.824;9.384;2024-01-30T03:50:23;6.80;;;5.10;;
13785;SDS011;47474;48.824;9.384;2024-01-30T03:52:50;7.27;;;4.97;;
13785;SDS011;47474;48.824;9.384;2024-01-30T03:55:17;6.90;;;5.23;;
13785;SDS011;47474;48.824;9.384;2024-01-30T03:57:44;5.97;;;5.20;;
13785;SDS011;47474;48.824;9.384;2024-01-30T04:00:11;5.20;;;4.47;;
13785;SDS011;47474;48.824;9.384;2024-01-30T04:02:39;5.70;;;4.93;;
13785;SDS011;47474;48.824;9.384;2024-01-30T04:05:07;7.17;;;5.17;;
13785;SDS011;47474;48.824;9.384;2024-01-30T04:07:34;6.70;;;5.53;;
13785;SDS011;47474;48.824;9.384;2024-01-30T04:10:01;6.77;;;5.47;;
13785;SDS011;47474;48.824;9.384;2024-01-30T04:12:27;7.17;;;5.27;;
13785;SDS011;47474;48.824;9.384;2024-01-30T04:14:54;7.10;;;5.23;;
13785;SDS011;47474;48.824;9.384;2024-01-30T04:17:20;8.17;;;5.30;;
13785;SDS011;47474;48.824;9.384;2024-01-30T04:19:46;8.27;;;5.10;;
13785;SDS011;47474;48.824;9.384;2024-01-30T04:22:14;9.60;;;5.43;;
13785;SDS011;47474;48.824;9.384;2024-01-30T04:24:41;6.33;;;5.00;;
13785;SDS011;47474;48.824;9.384;2024-01-30T04:27:07;5.57;;;4.63;;
13785;SDS011;47474;48.824;9.384;2024-01-30T04:29:34;6.30;;;4.87;;
13785;SDS011;47474;48.824;9.384;2024-01-30T04:32:00;6.03;;;5.20;;
13785;SDS011;47474;48.824;9.384;2024-01-30T04:34:27;6.37;;;4.80;;
13785;SDS011;47474;48.824;9.384;2024-01-30T04:36:53;6.77;;;5.03;;
13785;SDS011;47474;48.824;9.384;2024-01-30T04:39:21;6.23;;;5.63;;
13785;SDS011;47474;48.824;9.384;2024-01-30T04:41:48;7.17;;;5.50;;
13785;SDS011;47474;48.824;9.384;2024-01-30T04:44:14;8.83;;;5.63;;
13785;SDS011;47474;48.824;9.384;2024-01-30T04:46:41;6.17;;;4.93;;
13785;SDS011;47474;48.824;9.384;2024-01-30T04:49:08;8.03;;;5.20;;
13785;SDS011;47474;48.824;9.384;2024-01-30T04:51:34;5.93;;;4.93;;
13785;SDS011;47474;48.824;9.384;2024-01-30T04:54:01;6.40;;;5.17;;
13785;SDS011;47474;48.824;9.384;2024-01-30T04:56:29;8.90;;;5.20;;
13785;SDS011;47474;48.824;9.384;2024-01-30T04:58:56;5.93;;;4.60;;
13785;SDS011;47474;48.824;9.384;2024-01-30T05:01:23;6.47;;;5.13;;
13785;SDS011;47474;48.824;9.384;2024-01-30T05:03:49;8.20;;;5.60;;
13785;SDS011;47474;48.824;9.384;2024-01-30T05:06:23;9.13;;;5.53;;
13785;SDS011;47474;48.824;9.384;2024-01-30T05:08:50;6.13;;;5.40;;
13785;SDS011;47474;48.824;9.384;2024-01-30T05:11:16;7.50;;;5.03;;
13785;SDS011;47474;48.824;9.384;2024-01-30T05:13:44;7.33;;;5.43;;
13785;SDS011;47474;48.824;9.384;2024-01-30T05:16:11;7.70;;;6.23;;
13785;SDS011;47474;48.824;9.384;2024-01-30T05:18:37;7.30;;;5.13;;
13785;SDS011;47474;48.824;9.384;2024-01-30T05:21:05;6.57;;;5.00;;
13785;SDS011;47474;48.824;9.384;2024-01-30T05:23:31;7.37;;;5.00;;
13785;SDS011;47474;48.824;9.384;2024-01-30T05:25:58;5.20;;;4.70;;
13785;SDS011;47474;48.824;9.384;2024-01-30T05:28:26;7.40;;;4.73;;
13785;SDS011;47474;48.824;9.384;2024-01-30T05:30:53;6.87;;;5.43;;
13785;SDS011;47474;48.824;9.384;2024-01-30T05:33:20;6.33;;;5.57;;
13785;SDS011;47474;48.824;9.384;2024-01-30T05:35:46;5.83;;;4.87;;
13785;SDS011;47474;48.824;9.384;2024-01-30T05:38:13;7.30;;;5.17;;
13785;SDS011;47474;48.824;9.384;2024-01-30T05:40:41;5.83;;;5.27;;
13785;SDS011;47474;48.824;9.384;2024-01-30T05:43:07;6.07;;;4.80;;
13785;SDS011;47474;48.824;9.384;2024-01-30T05:45:34;8.60;;;5.03;;
13785;SDS011;47474;48.824;9.384;2024-01-30T05:48:02;6.30;;;4.60;;
13785;SDS011;47474;48.824;9.384;2024-01-30T05:50:29;6.20;;;4.87;;
13785;SDS011;47474;48.824;9.384;2024-01-30T05:52:57;5.80;;;5.20;;
13785;SDS011;47474;48.824;9.384;2024-01-30T05:55:23;6.43;;;4.97;;
13785;SDS011;47474;48.824;9.384;2024-01-30T05:57:50;6.33;;;5.00;;
13785;SDS011;47474;48.824;9.384;2024-01-30T06:00:17;9.97;;;5.53;;
13785;SDS011;47474;48.824;9.384;2024-01-30T06:02:44;6.67;;;4.83;;
13785;SDS011;47474;48.824;9.384;2024-01-30T06:05:12;7.70;;;5.20;;
13785;SDS011;47474;48.824;9.384;2024-01-30T06:07:38;7.70;;;5.47;;
13785;SDS011;47474;48.824;9.384;2024-01-30T06:10:05;6.33;;;4.60;;
13785;SDS011;47474;48.824;9.384;2024-01-30T06:12:33;5.27;;;4.13;;
13785;SDS011;47474;48.824;9.384;2024-01-30T06:15:00;5.70;;;5.10;;
13785;SDS011;47474;48.824;9.384;2024-01-30T06:17:27;9.33;;;5.10;;
13785;SDS011;47474;48.824;9.384;2024-01-30T06:19:54;6.73;;;5.60;;
13785;SDS011;47474;48.824;9.384;2024-01-30T06:22:22;5.30;;;4.80;;
13785;SDS011;47474;48.824;9.384;2024-01-30T06:24:48;6.60;;;5.03;;
13785;SDS011;47474;48.824;9.384;2024-01-30T06:27:15;5.23;;;4.67;;
13785;SDS011;47474;48.824;9.384;2024-01-30T06:29:42;8.53;;;5.33;;
13785;SDS011;47474;48.824;9.384;2024-01-30T06:32:09;7.03;;;5.63;;
13785;SDS011;47474;48.824;9.384;2024-01-30T06:34:35;8.13;;;5.70;;
13785;SDS011;47474;48.824;9.384;2024-01-30T06:37:03;6.10;;;5.20;;
13785;SDS011;47474;48.824;9.384;2024-01-30T06:39:31;6.10;;;4.83;;
13785;SDS011;47474;48.824;9.384;2024-01-30T06:41:58;6.33;;;4.63;;
13785;SDS011;47474;48.824;9.384;2024-01-30T06:44:24;6.70;;;5.27;;
13785;SDS011;47474;48.824;9.384;2024-01-30T06:46:51;7.80;;;5.70;;
13785;SDS011;47474;48.824;9.384;2024-01-30T06:49:17;7.67;;;5.03;;
13785;SDS011;47474;48.824;9.384;2024-01-30T06:51:44;7.70;;;4.87;;
13785;SDS011;47474;48.824;9.384;2024-01-30T06:54:10;7.57;;;5.33;;
13785;SDS011;47474;48.824;9.384;2024-01-30T06:56:38;7.20;;;5.33;;
13785;SDS011;47474;48.824;9.384;2024-01-30T06:59:05;5.70;;;4.53;;
13785;SDS011;47474;48.824;9.384;2024-01-30T07:01:33;7.10;;;5.40;;
13785;SDS011;47474;48.824;9.384;2024-01-30T07:04:01;7.03;;;5.17;;
13785;SDS011;47474;48.824;9.384;2024-01-30T07:06:30;7.07;;;5.07;;
13785;SDS011;47474;48.824;9.384;2024-01-30T07:08:57;6.20;;;5.07;;
13785;SDS011;47474;48.824;9.384;2024-01-30T07:11:28;6.40;;;5.27;;
13785;SDS011;47474;48.824;9.384;2024-01-30T07:13:57;7.60;;;5.63;;
13785;SDS011;47474;48.824;9.384;2024-01-30T07:16:23;6.00;;;5.40;;
13785;SDS011;47474;48.824;9.384;2024-01-30T07:18:50;7.57;;;5.60;;
13785;SDS011;47474;48.824;9.384;2024-01-30T07:21:17;7.27;;;5.53;;
13785;SDS011;47474;48.824;9.384;2024-01-30T07:23:46;7.70;;;5.93;;
13785;SDS011;47474;48.824;9.384;2024-01-30T07:26:13;7.70;;;5.47;;
13785;SDS011;47474;48.824;9.384;2024-01-30T07:28:40;6.93;;;5.57;;
13785;SDS011;47474;48.824;9.384;2024-01-30T07:31:08;8.47;;;5.77;;
13785;SDS011;47474;48.824;9.384;2024-01-30T07:33:34;8.20;;;5.50;;
13785;SDS011;47474;48.824;9.384;2024-01-30T07:36:04;12.17;;;5.77;;
13785;SDS011;47474;48.824;9.384;2024-01-30T07:38:31;7.73;;;5.30;;
13785;SDS011;47474;48.824;9.384;2024-01-30T07:40:59;7.43;;;5.50;;
13785;SDS011;47474;48.824;9.384;2024-01-30T07:43:25;7.97;;;5.70;;
13785;SDS011;47474;48.824;9.384;2024-01-30T07:45:52;6.60;;;5.40;;
13785;SDS011;47474;48.824;9.384;2024-01-30T07:48:20;7.27;;;5.47;;
13785;SDS011;47474;48.824;9.384;2024-01-30T07:50:46;7.57;;;5.63;;
13785;SDS011;47474;48.824;9.384;2024-01-30T07:53:13;8.83;;;6.03;;
13785;SDS011;47474;48.824;9.384;2024-01-30T07:55:39;8.03;;;5.97;;
13785;SDS011;47474;48.824;9.384;2024-01-30T07:58:07;8.07;;;5.73;;
13785;SDS011;47474;48.824;9.384;2024-01-30T08:00:35;8.17;;;6.37;;
13785;SDS011;47474;48.824;9.384;2024-01-30T08:03:02;9.03;;;6.27;;
13785;SDS011;47474;48.824;9.384;2024-01-30T08:05:30;11.10;;;7.20;;
13785;SDS011;47474;48.824;9.384;2024-01-30T08:07:57;9.17;;;6.50;;
13785;SDS011;47474;48.824;9.384;2024-01-30T08:10:23;8.80;;;7.10;;
13785;SDS011;47474;48.824;9.384;2024-01-30T08:12:50;7.17;;;6.40;;
13785;SDS011;47474;48.824;9.384;2024-01-30T08:15:16;8.23;;;6.33;;
13785;SDS011;47474;48.824;9.384;2024-01-30T08:17:43;6.57;;;5.97;;
13785;SDS011;47474;48.824;9.384;2024-01-30T08:20:10;8.33;;;5.37;;
13785;SDS011;47474;48.824;9.384;2024-01-30T08:22:39;6.87;;;5.93;;
13785;SDS011;47474;48.824;9.384;2024-01-30T08:25:06;8.03;;;6.30;;
13785;SDS011;47474;48.824;9.384;2024-01-30T08:27:33;7.13;;;5.60;;
13785;SDS011;47474;48.824;9.384;2024-01-30T08:30:00;7.33;;;5.90;;
13785;SDS011;47474;48.824;9.384;2024-01-30T08:32:26;8.23;;;6.40;;
13785;SDS011;47474;48.824;9.384;2024-01-30T08:34:53;6.93;;;6.03;;
13785;SDS011;47474;48.824;9.384;2024-01-30T08:37:19;10.37;;;5.90;;
13785;SDS011;47474;48.824;9.384;2024-01-30T08:39:47;8.33;;;6.50;;
13785;SDS011;47474;48.824;9.384;2024-01-30T08:42:14;8.80;;;6.77;;
13785;SDS011;47474;48.824;9.384;2024-01-30T08:44:43;9.53;;;7.40;;
13785;SDS011;47474;48.824;9.384;2024-01-30T08:47:09;7.70;;;6.90;;
13785;SDS011;47474;48.824;9.384;2024-01-30T08:49:36;9.23;;;7.13;;
13785;SDS011;47474;48.824;9.384;2024-01-30T08:52:02;11.23;;;6.93;;
13785;SDS011;47474;48.824;9.384;2024-01-30T08:54:29;10.97;;;7.47;;
13785;SDS011;47474;48.824;9.384;2024-01-30T08:56:59;9.47;;;6.97;;
13785;SDS011;47474;48.824;9.384;2024-01-30T08:59:26;9.03;;;7.07;;
13785;SDS011;47474;48.824;9.384;2024-01-30T09:01:52;9.17;;;7.27;;
13785;SDS011;47474;48.824;9.384;2024-01-30T09:04:20;10.67;;;7.80;;
13785;SDS011;47474;48.824;9.384;2024-01-30T09:06:47;9.63;;;6.77;;
13785;SDS011;47474;48.824;9.384;2024-01-30T09:09:14;9.03;;;7.00;;
13785;SDS011;47474;48.824;9.384;2024-01-30T09:11:40;7.93;;;6.50;;
13785;SDS011;47474;48.824;9.384;2024-01-30T09:14:09;7.13;;;6.43;;
13785;SDS011;47474;48.824;9.384;2024-01-30T09:16:36;9.63;;;6.70;;
13785;SDS011;47474;48.824;9.384;2024-01-30T09:19:03;8.53;;;6.40;;
13785;SDS011;47474;48.824;9.384;2024-01-30T09:21:30;8.80;;;6.77;;
13785;SDS011;47474;48.824;9.384;2024-01-30T09:24:01;10.67;;;7.57;;
13785;SDS011;47474;48.824;9.384;2024-01-30T09:26:28;10.90;;;6.90;;
13785;SDS011;47474;48.824;9.384;2024-01-30T09:28:54;9.37;;;6.77;;
13785;SDS011;47474;48.824;9.384;2024-01-30T09:31:22;11.63;;;8.40;;
13785;SDS011;47474;48.824;9.384;2024-01-30T09:33:49;8.63;;;7.00;;
13785;SDS011;47474;48.824;9.384;2024-01-30T09:36:16;8.30;;;7.13;;
13785;SDS011;47474;48.824;9.384;2024-01-30T09:38:44;10.07;;;7.57;;
13785;SDS011;47474;48.824;9.384;2024-01-30T09:41:11;9.73;;;7.43;;
13785;SDS011;47474;48.824;9.384;2024-01-30T09:43:38;8.10;;;6.23;;
13785;SDS011;47474;48.824;9.384;2024-01-30T09:46:05;7.43;;;6.63;;
13785;SDS011;47474;48.824;9.384;2024-01-30T09:48:33;12.00;;;7.37;;
13785;SDS011;47474;48.824;9.384;2024-01-30T09:51:00;9.50;;;7.30;;
13785;SDS011;47474;48.824;9.384;2024-01-30T09:53:26;10.10;;;7.90;;
13785;SDS011;47474;48.824;9.384;2024-01-30T09:55:53;8.20;;;6.87;;
13785;SDS011;47474;48.824;9.384;2024-01-30T09:58:19;8.67;;;7.10;;
13785;SDS011;47474;48.824;9.384;2024-01-30T10:00:47;10.67;;;7.93;;
13785;SDS011;47474;48.824;9.384;2024-01-30T10:03:13;9.60;;;7.70;;
13785;SDS011;47474;48.824;9.384;2024-01-30T10:05:41;9.47;;;7.30;;
13785;SDS011;47474;48.824;9.384;2024-01-30T10:08:12;8.93;;;7.33;;
13785;SDS011;47474;48.824;9.384;2024-01-30T10:10:39;9.17;;;7.27;;
13785;SDS011;47474;48.824;9.384;2024-01-30T10:13:05;8.87;;;7.10;;
13785;SDS011;47474;48.824;9.384;2024-01-30T10:15:32;8.87;;;7.57;;
13785;SDS011;47474;48.824;9.384;2024-01-30T10:18:00;10.77;;;7.60;;
13785;SDS011;47474;48.824;9.384;2024-01-30T10:20:27;9.67;;;8.07;;
13785;SDS011;47474;48.824;9.384;2024-01-30T10:22:55;8.83;;;7.03;;
13785;SDS011;47474;48.824;9.384;2024-01-30T10:25:22;9.90;;;7.23;;
13785;SDS011;47474;48.824;9.384;2024-01-30T10:27:52;11.47;;;7.43;;
13785;SDS011;47474;48.824;9.384;2024-01-30T10:30:19;11.53;;;7.63;;
13785;SDS011;47474;48.824;9.384;2024-01-30T10:32:45;9.77;;;7.60;;
13785;SDS011;47474;48.824;9.384;2024-01-30T10:35:12;9.13;;;6.97;;
13785;SDS011;47474;48.824;9.384;2024-01-30T10:37:38;9.77;;;7.90;;
13785;SDS011;47474;48.824;9.384;2024-01-30T10:40:07;11.37;;;7.90;;
13785;SDS011;47474;48.824;9.384;2024-01-30T10:42:36;11.03;;;8.30;;
13785;SDS011;47474;48.824;9.384;2024-01-30T10:45:05;8.23;;;7.10;;
13785;SDS011;47474;48.824;9.384;2024-01-30T10:47:33;8.60;;;7.70;;
13785;SDS011;47474;48.824;9.384;2024-01-30T10:50:00;8.50;;;6.40;;
13785;SDS011;47474;48.824;9.384;2024-01-30T10:52:28;8.37;;;7.13;;
13785;SDS011;47474;48.824;9.384;2024-01-30T10:54:55;9.10;;;6.53;;
13785;SDS011;47474;48.824;9.384;2024-01-30T10:57:24;8.23;;;6.50;;
13785;SDS011;47474;48.824;9.384;2024-01-30T10:59:52;8.63;;;6.87;;
13785;SDS011;47474;48.824;9.384;2024-01-30T11:02:20;7.73;;;6.93;;
13785;SDS011;47474;48.824;9.384;2024-01-30T11:04:46;8.33;;;7.07;;
13785;SDS011;47474;48.824;9.384;2024-01-30T11:07:16;8.93;;;6.70;;
13785;SDS011;47474;48.824;9.384;2024-01-30T11:09:48;8.47;;;6.37;;
13785;SDS011;47474;48.824;9.384;2024-01-30T11:12:16;9.17;;;6.70;;
13785;SDS011;47474;48.824;9.384;2024-01-30T11:14:43;10.10;;;6.87;;
13785;SDS011;47474;48.824;9.384;2024-01-30T11:17:10;9.13;;;7.23;;
13785;SDS011;47474;48.824;9.384;2024-01-30T11:19:37;10.70;;;7.20;;
13785;SDS011;47474;48.824;9.384;2024-01-30T11:22:06;9.07;;;6.73;;
13785;SDS011;47474;48.824;9.384;2024-01-30T11:24:36;7.57;;;6.37;;
13785;SDS011;47474;48.824;9.384;2024-01-30T11:27:07;8.00;;;6.87;;
13785;SDS011;47474;48.824;9.384;2024-01-30T11:29:34;8.97;;;6.73;;
13785;SDS011;47474;48.824;9.384;2024-01-30T11:32:02;8.57;;;6.50;;
13785;SDS011;47474;48.824;9.384;2024-01-30T11:34:30;9.83;;;6.30;;
13785;SDS011;47474;48.824;9.384;2024-01-30T11:36:56;8.67;;;6.20;;
13785;SDS011;47474;48.824;9.384;2024-01-30T11:39:24;7.93;;;6.30;;
13785;SDS011;47474;48.824;9.384;2024-01-30T11:41:51;8.53;;;7.43;;
13785;SDS011;47474;48.824;9.384;2024-01-30T11:44:18;9.80;;;6.97;;
13785;SDS011;47474;48.824;9.384;2024-01-30T11:46:45;11.53;;;6.77;;
13785;SDS011;47474;48.824;9.384;2024-01-30T11:49:13;8.63;;;7.13;;
13785;SDS011;47474;48.824;9.384;2024-01-30T11:51:40;9.03;;;7.03;;
13785;SDS011;47474;48.824;9.384;2024-01-30T11:54:07;9.43;;;7.13;;
13785;SDS011;47474;48.824;9.384;2024-01-30T11:56:33;7.83;;;5.20;;
13785;SDS011;47474;48.824;9.384;2024-01-30T11:59:00;7.43;;;6.00;;
13785;SDS011;47474;48.824;9.384;2024-01-30T12:01:27;8.00;;;5.50;;
13785;SDS011;47474;48.824;9.384;2024-01-30T12:03:53;5.67;;;5.07;;
13785;SDS011;47474;48.824;9.384;2024-01-30T12:06:23;10.07;;;4.83;;
13785;SDS011;47474;48.824;9.384;2024-01-30T12:08:59;7.43;;;4.87;;
13785;SDS011;47474;48.824;9.384;2024-01-30T12:11:29;8.07;;;6.17;;
13785;SDS011;47474;48.824;9.384;2024-01-30T12:13:56;6.63;;;5.82;;
13785;SDS011;47474;48.824;9.384;2024-01-30T12:16:22;7.15;;;5.68;;
13785;SDS011;47474;48.824;9.384;2024-01-30T12:18:49;8.57;;;5.93;;
13785;SDS011;47474;48.824;9.384;2024-01-30T12:21:16;7.37;;;5.07;;
13785;SDS011;47474;48.824;9.384;2024-01-30T12:23:44;9.20;;;5.97;;
13785;SDS011;47474;48.824;9.384;2024-01-30T12:26:11;8.83;;;5.83;;
13785;SDS011;47474;48.824;9.384;2024-01-30T12:28:46;6.97;;;5.73;;
13785;SDS011;47474;48.824;9.384;2024-01-30T12:31:14;8.57;;;5.50;;
13785;SDS011;47474;48.824;9.384;2024-01-30T12:33:40;7.83;;;5.57;;
13785;SDS011;47474;48.824;9.384;2024-01-30T12:36:07;9.17;;;6.03;;
13785;SDS011;47474;48.824;9.384;2024-01-30T12:38:33;11.93;;;6.70;;
13785;SDS011;47474;48.824;9.384;2024-01-30T12:41:01;8.48;;;6.55;;
13785;SDS011;47474;48.824;9.384;2024-01-30T12:43:27;9.82;;;6.95;;
13785;SDS011;47474;48.824;9.384;2024-01-30T12:45:55;8.63;;;6.32;;
13785;SDS011;47474;48.824;9.384;2024-01-30T12:48:23;11.63;;;6.77;;
13785;SDS011;47474;48.824;9.384;2024-01-30T12:50:50;8.30;;;6.37;;
13785;SDS011;47474;48.824;9.384;2024-01-30T12:53:17;7.00;;;4.67;;
13785;SDS011;47474;48.824;9.384;2024-01-30T12:55:43;5.10;;;3.53;;
13785;SDS011;47474;48.824;9.384;2024-01-30T12:58:11;7.30;;;4.00;;
13785;SDS011;47474;48.824;9.384;2024-01-30T13:00:37;7.03;;;5.82;;
13785;SDS011;47474;48.824;9.384;2024-01-30T13:03:04;5.38;;;4.43;;
13785;SDS011;47474;48.824;9.384;2024-01-30T13:05:30;5.07;;;4.45;;
13785;SDS011;47474;48.824;9.384;2024-01-30T13:07:57;5.20;;;3.28;;
13785;SDS011;47474;48.824;9.384;2024-01-30T13:10:23;5.32;;;3.78;;
13785;SDS011;47474;48.824;9.384;2024-01-30T13:12:50;7.25;;;6.15;;
13785;SDS011;47474;48.824;9.384;2024-01-30T13:15:18;5.88;;;4.97;;
13785;SDS011;47474;48.824;9.384;2024-01-30T13:17:45;6.68;;;4.97;;
13785;SDS011;47474;48.824;9.384;2024-01-30T13:20:12;7.78;;;6.85;;
13785;SDS011;47474;48.824;9.384;2024-01-30T13:22:41;5.30;;;4.78;;
13785;SDS011;47474;48.824;9.384;2024-01-30T13:25:09;9.45;;;7.85;;
13785;SDS011;47474;48.824;9.384;2024-01-30T13:27:35;7.25;;;6.53;;
13785;SDS011;47474;48.824;9.384;2024-01-30T13:30:02;7.20;;;5.03;;
13785;SDS011;47474;48.824;9.384;2024-01-30T13:32:30;8.50;;;6.15;;
13785;SDS011;47474;48.824;9.384;2024-01-30T13:34:57;8.02;;;5.20;;
13785;SDS011;47474;48.824;9.384;2024-01-30T13:37:23;7.32;;;5.43;;
13785;SDS011;47474;48.824;9.384;2024-01-30T13:39:50;7.43;;;5.50;;
13785;SDS011;47474;48.824;9.384;2024-01-30T13:42:16;4.68;;;4.28;;
13785;SDS011;47474;48.824;9.384;2024-01-30T13:44:44;6.55;;;4.70;;
13785;SDS011;47474;48.824;9.384;2024-01-30T13:47:10;5.82;;;4.32;;
13785;SDS011;47474;48.824;9.384;2024-01-30T13:49:38;7.68;;;4.65;;
13785;SDS011;47474;48.824;9.384;2024-01-30T13:52:05;6.90;;;5.03;;
13785;SDS011;47474;48.824;9.384;2024-01-30T13:54:32;7.43;;;5.50;;
13785;SDS011;47474;48.824;9.384;2024-01-30T13:56:58;8.07;;;5.30;;
13785;SDS011;47474;48.824;9.384;2024-01-30T13:59:25;8.45;;;5.50;;
13785;SDS011;47474;48.824;9.384;2024-01-30T14:01:51;5.95;;;4.38;;
13785;SDS011;47474;48.824;9.384;2024-01-30T14:04:17;5.88;;;4.53;;
13785;SDS011;47474;48.824;9.384;2024-01-30T14:06:45;6.60;;;4.22;;
13785;SDS011;47474;48.824;9.384;2024-01-30T14:11:40;5.82;;;4.93;;
13785;SDS011;47474;48.824;9.384;2024-01-30T14:14:07;7.28;;;5.18;;
13785;SDS011;47474;48.824;9.384;2024-01-30T14:16:34;8.15;;;5.57;;
13785;SDS011;47474;48.824;9.384;2024-01-30T14:19:01;6.03;;;4.90;;
13785;SDS011;47474;48.824;9.384;2024-01-30T14:21:27;7.33;;;5.93;;
13785;SDS011;47474;48.824;9.384;2024-01-30T14:23:55;8.23;;;5.93;;
13785;SDS011;47474;48.824;9.384;2024-01-30T14:26:22;10.63;;;5.97;;
13785;SDS011;47474;48.824;9.384;2024-01-30T14:28:48;8.57;;;5.90;;
13785;SDS011;47474;48.824;9.384;2024-01-30T14:31:15;7.77;;;6.03;;
13785;SDS011;47474;48.824;9.384;2024-01-30T14:33:43;7.10;;;5.37;;
13785;SDS011;47474;48.824;9.384;2024-01-30T14:36:10;6.30;;;5.33;;
13785;SDS011;47474;48.824;9.384;2024-01-30T14:38:36;5.93;;;4.90;;
13785;SDS011;47474;48.824;9.384;2024-01-30T14:41:04;5.87;;;4.83;;
13785;SDS011;47474;48.824;9.384;2024-01-30T14:43:30;6.30;;;5.27;;
13785;SDS011;47474;48.824;9.384;2024-01-30T14:45:57;6.50;;;5.10;;
13785;SDS011;47474;48.824;9.384;2024-01-30T14:48:24;7.47;;;5.37;;